Terminal Aerodrome Forecast
Issued by NWS Bismarck, ND

Home | Current Version | Previous Version | Text Only | Print | Product List | Glossary On
Versions: 1 2 3 4 5 6 7 8 9 10 11 12 13 14 15 16 17 18 19 20 21 22 23 24 25 26
889
FTUS43 KBIS 280543 AAA
TAFISN
TAF AMD
KISN 280543Z 2806/2906 05005KT P6SM SCT005 OVC013
      TEMPO 2806/2807 OVC005
     FM280700 05005KT P6SM OVC005
     FM281600 09007KT P6SM OVC015
     FM282000 18006KT P6SM -SHRA VCTS BKN050CB
     FM290000 28006KT P6SM SCT050=

USA.gov is the U.S. government's official web portal to all federal, state and local government web resources and services.